sensor_id;sensor_type;location;lat;lon;timestamp;P1;P2;P0
56495;PMS5003;42804;55.762;38.084;2022-08-16T00:01:19;38.00;34.50;23.00
56495;PMS5003;42804;55.762;38.084;2022-08-16T00:03:50;33.00;31.75;22.50
56495;PMS5003;42804;55.762;38.084;2022-08-16T00:06:18;34.25;32.50;21.75
56495;PMS5003;42804;55.762;38.084;2022-08-16T00:08:48;30.75;30.00;21.00
56495;PMS5003;42804;55.762;38.084;2022-08-16T00:11:18;31.00;29.50;20.00
56495;PMS5003;42804;55.762;38.084;2022-08-16T00:13:49;33.25;30.50;21.00
56495;PMS5003;42804;55.762;38.084;2022-08-16T00:16:21;30.00;28.25;20.00
56495;PMS5003;42804;55.762;38.084;2022-08-16T00:19:09;26.25;26.25;20.00
56495;PMS5003;42804;55.762;38.084;2022-08-16T00:21:39;28.50;27.00;20.00
56495;PMS5003;42804;55.762;38.084;2022-08-16T00:24:08;30.25;28.75;20.25
56495;PMS5003;42804;55.762;38.084;2022-08-16T00:26:38;28.00;27.00;18.25
56495;PMS5003;42804;55.762;38.084;2022-08-16T00:29:13;27.75;24.75;18.50
56495;PMS5003;42804;55.762;38.084;2022-08-16T00:31:42;26.00;23.50;15.50
56495;PMS5003;42804;55.762;38.084;2022-08-16T00:34:27;23.00;23.00;16.25
56495;PMS5003;42804;55.762;38.084;2022-08-16T00:37:16;23.25;22.50;15.75
56495;PMS5003;42804;55.762;38.084;2022-08-16T00:39:46;28.50;27.00;19.00
56495;PMS5003;42804;55.762;38.084;2022-08-16T00:42:25;26.25;24.75;18.50
56495;PMS5003;42804;55.762;38.084;2022-08-16T00:45:08;25.00;23.00;17.00
56495;PMS5003;42804;55.762;38.084;2022-08-16T00:47:42;26.75;24.50;17.00
56495;PMS5003;42804;55.762;38.084;2022-08-16T00:50:15;24.50;21.00;17.00
56495;PMS5003;42804;55.762;38.084;2022-08-16T00:52:44;24.00;23.25;17.00
56495;PMS5003;42804;55.762;38.084;2022-08-16T00:55:18;26.75;23.50;17.50
56495;PMS5003;42804;55.762;38.084;2022-08-16T00:57:47;27.00;23.50;17.00
56495;PMS5003;42804;55.762;38.084;2022-08-16T01:00:26;20.25;19.75;14.25
56495;PMS5003;42804;55.762;38.084;2022-08-16T01:02:55;25.50;24.50;17.25
56495;PMS5003;42804;55.762;38.084;2022-08-16T01:05:23;21.50;20.75;15.00
56495;PMS5003;42804;55.762;38.084;2022-08-16T01:07:53;24.25;23.25;16.50
56495;PMS5003;42804;55.762;38.084;2022-08-16T01:10:25;24.25;23.25;17.00
56495;PMS5003;42804;55.762;38.084;2022-08-16T01:13:00;23.25;22.25;16.00
56495;PMS5003;42804;55.762;38.084;2022-08-16T01:15:33;23.25;21.50;14.75
56495;PMS5003;42804;55.762;38.084;2022-08-16T01:18:09;24.00;20.50;14.00
56495;PMS5003;42804;55.762;38.084;2022-08-16T01:21:01;24.50;22.00;16.75
56495;PMS5003;42804;55.762;38.084;2022-08-16T01:23:33;22.00;22.00;17.50
56495;PMS5003;42804;55.762;38.084;2022-08-16T01:26:27;24.75;23.00;18.00
56495;PMS5003;42804;55.762;38.084;2022-08-16T01:29:02;24.00;23.75;16.50
56495;PMS5003;42804;55.762;38.084;2022-08-16T01:31:35;17.25;16.50;13.25
56495;PMS5003;42804;55.762;38.084;2022-08-16T01:34:10;25.00;22.75;17.25
56495;PMS5003;42804;55.762;38.084;2022-08-16T01:37:00;24.25;23.00;17.75
56495;PMS5003;42804;55.762;38.084;2022-08-16T01:39:31;22.75;22.75;17.00
56495;PMS5003;42804;55.762;38.084;2022-08-16T01:42:03;24.00;22.75;16.75
56495;PMS5003;42804;55.762;38.084;2022-08-16T01:44:39;23.50;21.50;16.25
56495;PMS5003;42804;55.762;38.084;2022-08-16T01:47:09;26.00;25.25;18.00
56495;PMS5003;42804;55.762;38.084;2022-08-16T01:49:40;24.25;23.75;16.75
56495;PMS5003;42804;55.762;38.084;2022-08-16T01:52:29;21.75;20.25;15.50
56495;PMS5003;42804;55.762;38.084;2022-08-16T01:55:09;24.00;23.00;16.25
56495;PMS5003;42804;55.762;38.084;2022-08-16T01:57:41;22.00;21.00;16.75
56495;PMS5003;42804;55.762;38.084;2022-08-16T02:00:22;26.50;24.00;18.00
56495;PMS5003;42804;55.762;38.084;2022-08-16T02:02:56;23.75;21.75;16.00
56495;PMS5003;42804;55.762;38.084;2022-08-16T02:05:24;24.00;23.50;15.25
56495;PMS5003;42804;55.762;38.084;2022-08-16T02:07:58;24.00;23.25;18.00
56495;PMS5003;42804;55.762;38.084;2022-08-16T02:10:28;25.25;24.75;17.50
56495;PMS5003;42804;55.762;38.084;2022-08-16T02:13:02;20.50;19.75;15.00
56495;PMS5003;42804;55.762;38.084;2022-08-16T02:15:33;21.25;20.00;13.50
56495;PMS5003;42804;55.762;38.084;2022-08-16T02:18:10;25.00;22.50;18.00
56495;PMS5003;42804;55.762;38.084;2022-08-16T02:20:45;25.25;23.50;15.75
56495;PMS5003;42804;55.762;38.084;2022-08-16T02:23:14;23.00;22.75;17.25
56495;PMS5003;42804;55.762;38.084;2022-08-16T02:25:44;23.00;23.00;19.00
56495;PMS5003;42804;55.762;38.084;2022-08-16T02:28:22;21.00;20.00;14.75
56495;PMS5003;42804;55.762;38.084;2022-08-16T02:30:53;18.25;18.25;12.75
56495;PMS5003;42804;55.762;38.084;2022-08-16T02:33:22;22.50;22.25;17.25
56495;PMS5003;42804;55.762;38.084;2022-08-16T02:36:16;18.75;18.75;15.25
56495;PMS5003;42804;55.762;38.084;2022-08-16T02:39:06;19.75;18.25;13.00
56495;PMS5003;42804;55.762;38.084;2022-08-16T02:41:37;23.00;23.00;17.00
56495;PMS5003;42804;55.762;38.084;2022-08-16T02:44:09;25.50;24.00;17.75
56495;PMS5003;42804;55.762;38.084;2022-08-16T02:46:43;26.75;25.50;19.00
56495;PMS5003;42804;55.762;38.084;2022-08-16T02:49:17;30.00;28.25;20.75
56495;PMS5003;42804;55.762;38.084;2022-08-16T02:51:46;21.00;20.25;12.00
56495;PMS5003;42804;55.762;38.084;2022-08-16T02:54:15;33.00;29.75;20.50
56495;PMS5003;42804;55.762;38.084;2022-08-16T02:56:50;28.00;27.25;21.00
56495;PMS5003;42804;55.762;38.084;2022-08-16T02:59:20;22.00;22.00;15.75
56495;PMS5003;42804;55.762;38.084;2022-08-16T03:01:49;30.00;29.75;20.00
56495;PMS5003;42804;55.762;38.084;2022-08-16T03:04:26;33.75;32.75;22.00
56495;PMS5003;42804;55.762;38.084;2022-08-16T03:07:14;29.50;29.25;21.00
56495;PMS5003;42804;55.762;38.084;2022-08-16T03:09:53;31.25;29.25;21.50
56495;PMS5003;42804;55.762;38.084;2022-08-16T03:12:29;29.00;28.50;19.50
56495;PMS5003;42804;55.762;38.084;2022-08-16T03:15:06;29.75;28.75;19.75
56495;PMS5003;42804;55.762;38.084;2022-08-16T03:17:35;27.00;25.75;19.25
56495;PMS5003;42804;55.762;38.084;2022-08-16T03:20:20;23.25;22.75;16.50
56495;PMS5003;42804;55.762;38.084;2022-08-16T03:23:00;22.00;22.00;16.50
56495;PMS5003;42804;55.762;38.084;2022-08-16T03:25:30;26.00;25.50;18.00
56495;PMS5003;42804;55.762;38.084;2022-08-16T03:28:10;22.25;21.50;17.50
56495;PMS5003;42804;55.762;38.084;2022-08-16T03:30:40;21.75;21.00;15.25
56495;PMS5003;42804;55.762;38.084;2022-08-16T03:33:10;23.50;22.00;16.25
56495;PMS5003;42804;55.762;38.084;2022-08-16T03:35:50;27.25;24.25;18.00
56495;PMS5003;42804;55.762;38.084;2022-08-16T03:38:29;24.50;23.25;16.75
56495;PMS5003;42804;55.762;38.084;2022-08-16T03:41:10;32.75;30.00;21.00
56495;PMS5003;42804;55.762;38.084;2022-08-16T03:43:54;26.00;24.75;19.50
56495;PMS5003;42804;55.762;38.084;2022-08-16T03:46:29;29.00;26.50;19.00
56495;PMS5003;42804;55.762;38.084;2022-08-16T03:49:19;23.75;22.50;16.50
56495;PMS5003;42804;55.762;38.084;2022-08-16T03:51:51;27.50;26.25;19.50
56495;PMS5003;42804;55.762;38.084;2022-08-16T03:54:23;32.25;31.00;21.00
56495;PMS5003;42804;55.762;38.084;2022-08-16T03:56:55;24.00;23.50;19.00
56495;PMS5003;42804;55.762;38.084;2022-08-16T03:59:28;25.75;23.75;17.00
56495;PMS5003;42804;55.762;38.084;2022-08-16T04:02:03;21.50;21.50;18.75
56495;PMS5003;42804;55.762;38.084;2022-08-16T04:04:50;29.25;25.50;17.25
56495;PMS5003;42804;55.762;38.084;2022-08-16T04:07:21;21.50;20.50;16.75
56495;PMS5003;42804;55.762;38.084;2022-08-16T04:09:51;28.75;25.75;18.25
56495;PMS5003;42804;55.762;38.084;2022-08-16T04:12:19;24.50;24.25;17.75
56495;PMS5003;42804;55.762;38.084;2022-08-16T04:15:09;24.25;22.00;17.00
56495;PMS5003;42804;55.762;38.084;2022-08-16T04:17:51;22.50;22.25;15.25
56495;PMS5003;42804;55.762;38.084;2022-08-16T04:20:20;21.50;20.00;14.75
56495;PMS5003;42804;55.762;38.084;2022-08-16T04:23:02;24.75;24.50;16.50
56495;PMS5003;42804;55.762;38.084;2022-08-16T04:25:32;25.00;22.75;16.00
56495;PMS5003;42804;55.762;38.084;2022-08-16T04:28:02;21.50;21.25;15.00
56495;PMS5003;42804;55.762;38.084;2022-08-16T04:30:51;21.25;20.75;16.00
56495;PMS5003;42804;55.762;38.084;2022-08-16T04:33:21;20.75;19.00;13.75
56495;PMS5003;42804;55.762;38.084;2022-08-16T04:35:56;16.00;15.25;12.00
56495;PMS5003;42804;55.762;38.084;2022-08-16T04:38:28;12.50;12.00;8.50
56495;PMS5003;42804;55.762;38.084;2022-08-16T04:40:57;19.00;18.25;14.00
56495;PMS5003;42804;55.762;38.084;2022-08-16T04:43:26;18.00;17.50;13.00
56495;PMS5003;42804;55.762;38.084;2022-08-16T04:45:57;20.00;18.00;13.25
56495;PMS5003;42804;55.762;38.084;2022-08-16T04:48:35;15.50;14.00;14.00
56495;PMS5003;42804;55.762;38.084;2022-08-16T04:51:08;22.50;20.25;14.00
56495;PMS5003;42804;55.762;38.084;2022-08-16T04:53:48;18.00;18.00;12.75
56495;PMS5003;42804;55.762;38.084;2022-08-16T04:56:18;15.75;15.75;12.00
56495;PMS5003;42804;55.762;38.084;2022-08-16T04:58:49;15.00;15.00;11.50
56495;PMS5003;42804;55.762;38.084;2022-08-16T05:01:23;16.75;16.50;12.00
56495;PMS5003;42804;55.762;38.084;2022-08-16T05:04:14;19.25;15.50;12.25
56495;PMS5003;42804;55.762;38.084;2022-08-16T05:06:47;17.00;16.75;14.00
56495;PMS5003;42804;55.762;38.084;2022-08-16T05:09:25;13.25;12.25;7.50
56495;PMS5003;42804;55.762;38.084;2022-08-16T05:11:56;18.00;17.25;12.75
56495;PMS5003;42804;55.762;38.084;2022-08-16T05:14:26;15.75;15.50;11.00
56495;PMS5003;42804;55.762;38.084;2022-08-16T05:17:19;15.00;14.50;11.00
56495;PMS5003;42804;55.762;38.084;2022-08-16T05:19:56;16.50;16.50;11.50
56495;PMS5003;42804;55.762;38.084;2022-08-16T05:22:36;16.25;16.25;12.00
56495;PMS5003;42804;55.762;38.084;2022-08-16T05:25:13;18.50;18.25;13.00
56495;PMS5003;42804;55.762;38.084;2022-08-16T05:27:47;14.50;14.50;10.75
56495;PMS5003;42804;55.762;38.084;2022-08-16T05:30:20;20.00;18.00;13.00
56495;PMS5003;42804;55.762;38.084;2022-08-16T05:33:06;16.00;15.50;11.50
56495;PMS5003;42804;55.762;38.084;2022-08-16T05:35:45;17.00;15.75;11.25
56495;PMS5003;42804;55.762;38.084;2022-08-16T05:38:43;15.00;14.00;10.00
56495;PMS5003;42804;55.762;38.084;2022-08-16T05:41:13;13.50;13.00;8.50
56495;PMS5003;42804;55.762;38.084;2022-08-16T05:43:43;13.50;13.50;8.50
56495;PMS5003;42804;55.762;38.084;2022-08-16T05:46:36;14.00;14.00;10.25
56495;PMS5003;42804;55.762;38.084;2022-08-16T05:49:16;12.80;12.80;8.00
56495;PMS5003;42804;55.762;38.084;2022-08-16T05:51:54;14.25;13.50;11.00
56495;PMS5003;42804;55.762;38.084;2022-08-16T05:54:23;13.00;10.00;4.75
56495;PMS5003;42804;55.762;38.084;2022-08-16T05:56:55;13.75;13.75;10.25
56495;PMS5003;42804;55.762;38.084;2022-08-16T05:59:26;15.00;14.00;10.75
56495;PMS5003;42804;55.762;38.084;2022-08-16T06:01:56;10.50;10.50;8.25
56495;PMS5003;42804;55.762;38.084;2022-08-16T06:04:30;14.00;14.00;9.00
56495;PMS5003;42804;55.762;38.084;2022-08-16T06:07:05;15.25;12.50;9.00
56495;PMS5003;42804;55.762;38.084;2022-08-16T06:09:56;10.40;10.40;7.60
56495;PMS5003;42804;55.762;38.084;2022-08-16T06:12:29;15.20;15.20;9.40
56495;PMS5003;42804;55.762;38.084;2022-08-16T06:15:04;12.50;12.00;7.75
56495;PMS5003;42804;55.762;38.084;2022-08-16T06:17:40;11.75;10.75;7.75
56495;PMS5003;42804;55.762;38.084;2022-08-16T06:20:23;12.33;12.33;8.00
56495;PMS5003;42804;55.762;38.084;2022-08-16T06:23:11;11.25;11.25;9.00
56495;PMS5003;42804;55.762;38.084;2022-08-16T06:26:06;11.00;11.00;8.75
56495;PMS5003;42804;55.762;38.084;2022-08-16T06:28:39;12.25;11.25;9.50
56495;PMS5003;42804;55.762;38.084;2022-08-16T06:31:20;10.25;10.00;8.00
56495;PMS5003;42804;55.762;38.084;2022-08-16T06:33:52;12.50;12.50;8.50
56495;PMS5003;42804;55.762;38.084;2022-08-16T06:36:21;10.00;9.50;7.00
56495;PMS5003;42804;55.762;38.084;2022-08-16T06:39:17;11.00;10.75;8.00
56495;PMS5003;42804;55.762;38.084;2022-08-16T06:41:56;11.60;10.60;8.00
56495;PMS5003;42804;55.762;38.084;2022-08-16T06:44:54;8.00;6.75;5.00
56495;PMS5003;42804;55.762;38.084;2022-08-16T06:47:48;9.25;8.75;7.00
56495;PMS5003;42804;55.762;38.084;2022-08-16T06:50:20;10.00;9.25;6.50
56495;PMS5003;42804;55.762;38.084;2022-08-16T06:52:56;9.00;9.00;6.50
56495;PMS5003;42804;55.762;38.084;2022-08-16T06:55:29;9.00;9.00;6.75
56495;PMS5003;42804;55.762;38.084;2022-08-16T06:58:01;9.75;8.50;6.00
56495;PMS5003;42804;55.762;38.084;2022-08-16T07:00:54;10.25;10.00;8.00
56495;PMS5003;42804;55.762;38.084;2022-08-16T07:03:28;9.00;9.00;6.50
56495;PMS5003;42804;55.762;38.084;2022-08-16T07:06:01;10.50;10.25;7.50
56495;PMS5003;42804;55.762;38.084;2022-08-16T07:08:38;12.00;10.20;6.60
56495;PMS5003;42804;55.762;38.084;2022-08-16T07:11:09;15.40;13.80;10.60
56495;PMS5003;42804;55.762;38.084;2022-08-16T07:13:43;6.25;6.00;5.00
56495;PMS5003;42804;55.762;38.084;2022-08-16T07:16:38;10.00;9.50;7.00
56495;PMS5003;42804;55.762;38.084;2022-08-16T07:19:08;9.25;9.25;6.75
56495;PMS5003;42804;55.762;38.084;2022-08-16T07:21:40;10.40;10.40;6.40
56495;PMS5003;42804;55.762;38.084;2022-08-16T07:24:24;10.75;10.00;7.00
56495;PMS5003;42804;55.762;38.084;2022-08-16T07:27:02;10.00;10.00;7.00
56495;PMS5003;42804;55.762;38.084;2022-08-16T07:29:36;8.20;7.40;5.20
56495;PMS5003;42804;55.762;38.084;2022-08-16T07:32:07;11.00;10.25;7.50
56495;PMS5003;42804;55.762;38.084;2022-08-16T07:34:36;11.75;10.75;8.00
56495;PMS5003;42804;55.762;38.084;2022-08-16T07:37:16;8.25;8.25;6.50
56495;PMS5003;42804;55.762;38.084;2022-08-16T07:40:14;9.20;9.20;7.20
56495;PMS5003;42804;55.762;38.084;2022-08-16T07:42:45;7.75;7.00;5.25
56495;PMS5003;42804;55.762;38.084;2022-08-16T07:45:14;9.25;9.00;6.50
56495;PMS5003;42804;55.762;38.084;2022-08-16T07:47:48;10.25;9.00;6.50
56495;PMS5003;42804;55.762;38.084;2022-08-16T07:50:17;10.00;9.75;6.25
56495;PMS5003;42804;55.762;38.084;2022-08-16T07:53:06;8.50;8.50;6.25
56495;PMS5003;42804;55.762;38.084;2022-08-16T07:55:37;10.50;9.75;7.00
56495;PMS5003;42804;55.762;38.084;2022-08-16T07:58:19;11.75;10.75;8.50
56495;PMS5003;42804;55.762;38.084;2022-08-16T08:01:07;8.00;8.00;7.00
56495;PMS5003;42804;55.762;38.084;2022-08-16T08:03:42;10.50;10.25;7.00
56495;PMS5003;42804;55.762;38.084;2022-08-16T08:06:18;3.00;2.80;1.00
56495;PMS5003;42804;55.762;38.084;2022-08-16T08:08:51;10.20;9.40;7.40
56495;PMS5003;42804;55.762;38.084;2022-08-16T08:11:25;6.00;6.00;4.00
56495;PMS5003;42804;55.762;38.084;2022-08-16T08:13:59;8.00;7.50;6.00
56495;PMS5003;42804;55.762;38.084;2022-08-16T08:16:34;8.00;7.75;5.25
56495;PMS5003;42804;55.762;38.084;2022-08-16T08:19:04;9.00;8.75;6.00
56495;PMS5003;42804;55.762;38.084;2022-08-16T08:21:36;7.00;7.00;4.75
56495;PMS5003;42804;55.762;38.084;2022-08-16T08:24:35;10.80;10.40;7.60
56495;PMS5003;42804;55.762;38.084;2022-08-16T08:27:11;7.50;7.50;7.00
56495;PMS5003;42804;55.762;38.084;2022-08-16T08:29:52;8.75;8.75;6.50
56495;PMS5003;42804;55.762;38.084;2022-08-16T08:32:43;9.50;8.50;5.75
56495;PMS5003;42804;55.762;38.084;2022-08-16T08:35:29;9.00;8.00;6.00
56495;PMS5003;42804;55.762;38.084;2022-08-16T08:38:01;10.25;10.25;7.25
56495;PMS5003;42804;55.762;38.084;2022-08-16T08:40:33;9.50;8.50;6.00
56495;PMS5003;42804;55.762;38.084;2022-08-16T08:43:04;8.75;7.25;4.50
56495;PMS5003;42804;55.762;38.084;2022-08-16T08:45:52;10.00;10.00;8.00
56495;PMS5003;42804;55.762;38.084;2022-08-16T08:48:23;10.20;9.00;7.00
56495;PMS5003;42804;55.762;38.084;2022-08-16T08:51:00;10.50;10.25;7.25
56495;PMS5003;42804;55.762;38.084;2022-08-16T08:53:29;9.50;9.00;6.75
56495;PMS5003;42804;55.762;38.084;2022-08-16T08:55:59;8.50;7.75;6.25
56495;PMS5003;42804;55.762;38.084;2022-08-16T08:58:47;7.75;7.50;5.75
56495;PMS5003;42804;55.762;38.084;2022-08-16T09:01:38;8.75;8.75;7.00
56495;PMS5003;42804;55.762;38.084;2022-08-16T09:04:23;10.75;10.75;7.25
56495;PMS5003;42804;55.762;38.084;2022-08-16T09:06:53;9.75;9.75;6.25
56495;PMS5003;42804;55.762;38.084;2022-08-16T09:09:26;10.50;9.25;6.75
56495;PMS5003;42804;55.762;38.084;2022-08-16T09:12:02;9.60;9.60;6.80
56495;PMS5003;42804;55.762;38.084;2022-08-16T09:14:53;11.75;11.00;8.00
56495;PMS5003;42804;55.762;38.084;2022-08-16T09:17:27;5.00;5.00;2.00
56495;PMS5003;42804;55.762;38.084;2022-08-16T09:20:17;9.50;9.50;6.25
56495;PMS5003;42804;55.762;38.084;2022-08-16T09:22:48;7.00;7.00;4.25
56495;PMS5003;42804;55.762;38.084;2022-08-16T09:25:24;10.75;9.75;7.00
56495;PMS5003;42804;55.762;38.084;2022-08-16T09:28:02;8.80;8.80;6.20
56495;PMS5003;42804;55.762;38.084;2022-08-16T09:30:58;6.25;6.25;5.50
56495;PMS5003;42804;55.762;38.084;2022-08-16T09:33:30;6.25;6.25;4.50
56495;PMS5003;42804;55.762;38.084;2022-08-16T09:36:05;8.00;7.00;5.25
56495;PMS5003;42804;55.762;38.084;2022-08-16T09:38:54;10.25;10.25;7.00
56495;PMS5003;42804;55.762;38.084;2022-08-16T09:41:25;11.00;11.00;7.80
56495;PMS5003;42804;55.762;38.084;2022-08-16T09:43:54;6.50;6.50;5.00
56495;PMS5003;42804;55.762;38.084;2022-08-16T09:46:42;8.75;8.25;6.75
56495;PMS5003;42804;55.762;38.084;2022-08-16T09:49:22;6.00;6.00;4.75
56495;PMS5003;42804;55.762;38.084;2022-08-16T09:52:03;11.25;10.50;8.50
56495;PMS5003;42804;55.762;38.084;2022-08-16T09:54:31;8.75;8.75;6.50
56495;PMS5003;42804;55.762;38.084;2022-08-16T09:56:59;9.75;9.75;7.25
56495;PMS5003;42804;55.762;38.084;2022-08-16T09:59:28;10.50;10.25;8.00
56495;PMS5003;42804;55.762;38.084;2022-08-16T10:02:04;8.50;8.50;7.00
56495;PMS5003;42804;55.762;38.084;2022-08-16T10:04:54;7.25;7.25;4.75
56495;PMS5003;42804;55.762;38.084;2022-08-16T10:07:23;5.25;5.25;3.00
56495;PMS5003;42804;55.762;38.084;2022-08-16T10:10:09;7.50;7.50;5.50
56495;PMS5003;42804;55.762;38.084;2022-08-16T10:12:44;7.25;7.25;5.25
56495;PMS5003;42804;55.762;38.084;2022-08-16T10:15:30;8.50;8.25;6.25
56495;PMS5003;42804;55.762;38.084;2022-08-16T10:18:00;10.00;10.00;7.50
56495;PMS5003;42804;55.762;38.084;2022-08-16T10:20:55;10.00;10.00;7.00
56495;PMS5003;42804;55.762;38.084;2022-08-16T10:23:26;10.75;9.75;7.00
56495;PMS5003;42804;55.762;38.084;2022-08-16T10:25:55;8.75;8.00;5.75
56495;PMS5003;42804;55.762;38.084;2022-08-16T10:28:44;9.00;9.00;7.25
56495;PMS5003;42804;55.762;38.084;2022-08-16T10:31:16;10.75;10.75;8.00
56495;PMS5003;42804;55.762;38.084;2022-08-16T10:34:04;9.80;9.00;7.00
56495;PMS5003;42804;55.762;38.084;2022-08-16T10:36:54;11.75;10.00;7.00
56495;PMS5003;42804;55.762;38.084;2022-08-16T10:39:23;11.00;10.75;7.25
56495;PMS5003;42804;55.762;38.084;2022-08-16T10:41:51;9.25;8.50;6.75
56495;PMS5003;42804;55.762;38.084;2022-08-16T10:44:19;10.00;10.00;7.50
56495;PMS5003;42804;55.762;38.084;2022-08-16T10:46:48;9.80;9.80;7.00
56495;PMS5003;42804;55.762;38.084;2022-08-16T10:49:16;11.00;10.50;7.75
56495;PMS5003;42804;55.762;38.084;2022-08-16T10:51:44;11.25;11.00;8.25
56495;PMS5003;42804;55.762;38.084;2022-08-16T10:54:34;8.25;8.25;6.00
56495;PMS5003;42804;55.762;38.084;2022-08-16T10:57:22;9.75;9.75;7.00
56495;PMS5003;42804;55.762;38.084;2022-08-16T10:59:58;9.00;9.00;7.50
56495;PMS5003;42804;55.762;38.084;2022-08-16T11:02:30;8.00;7.00;6.00
56495;PMS5003;42804;55.762;38.084;2022-08-16T11:05:18;10.25;9.25;7.00
56495;PMS5003;42804;55.762;38.084;2022-08-16T11:07:47;8.20;8.20;5.00
56495;PMS5003;42804;55.762;38.084;2022-08-16T11:10:22;9.80;9.60;6.60
56495;PMS5003;42804;55.762;38.084;2022-08-16T11:13:13;9.00;9.00;5.60
56495;PMS5003;42804;55.762;38.084;2022-08-16T11:16:02;10.50;9.00;6.25
56495;PMS5003;42804;55.762;38.084;2022-08-16T11:18:50;10.00;9.25;7.00
56495;PMS5003;42804;55.762;38.084;2022-08-16T11:21:38;9.80;9.20;6.80
56495;PMS5003;42804;55.762;38.084;2022-08-16T11:24:26;10.00;10.00;7.00
56495;PMS5003;42804;55.762;38.084;2022-08-16T11:27:07;10.00;9.00;6.25
56495;PMS5003;42804;55.762;38.084;2022-08-16T11:29:55;7.50;6.75;5.25
56495;PMS5003;42804;55.762;38.084;2022-08-16T11:32:26;11.20;10.20;7.20
56495;PMS5003;42804;55.762;38.084;2022-08-16T11:34:59;9.00;9.00;7.00
56495;PMS5003;42804;55.762;38.084;2022-08-16T11:37:42;7.80;7.80;6.20
56495;PMS5003;42804;55.762;38.084;2022-08-16T11:40:32;8.25;8.25;6.75
56495;PMS5003;42804;55.762;38.084;2022-08-16T11:43:03;10.00;9.75;7.50
56495;PMS5003;42804;55.762;38.084;2022-08-16T11:45:35;10.75;10.75;6.00
56495;PMS5003;42804;55.762;38.084;2022-08-16T11:48:04;10.00;10.00;7.00
56495;PMS5003;42804;55.762;38.084;2022-08-16T11:50:32;12.00;11.00;8.00
56495;PMS5003;42804;55.762;38.084;2022-08-16T11:53:01;5.25;4.75;4.00
56495;PMS5003;42804;55.762;38.084;2022-08-16T11:55:30;9.75;9.25;6.00
56495;PMS5003;42804;55.762;38.084;2022-08-16T11:58:05;8.25;8.00;6.50
56495;PMS5003;42804;55.762;38.084;2022-08-16T12:00:37;11.25;10.75;7.25
56495;PMS5003;42804;55.762;38.084;2022-08-16T12:03:18;9.00;8.20;6.00
56495;PMS5003;42804;55.762;38.084;2022-08-16T12:06:00;9.25;9.25;7.25
56495;PMS5003;42804;55.762;38.084;2022-08-16T12:08:30;8.25;7.25;4.50
56495;PMS5003;42804;55.762;38.084;2022-08-16T12:10:58;10.25;9.75;6.00
56495;PMS5003;42804;55.762;38.084;2022-08-16T12:13:30;15.00;14.00;9.50
56495;PMS5003;42804;55.762;38.084;2022-08-16T12:15:58;8.00;7.75;5.50
56495;PMS5003;42804;55.762;38.084;2022-08-16T12:18:26;7.75;7.75;4.50
56495;PMS5003;42804;55.762;38.084;2022-08-16T12:20:55;7.75;7.75;5.50
56495;PMS5003;42804;55.762;38.084;2022-08-16T12:23:25;12.25;12.00;8.25
56495;PMS5003;42804;55.762;38.084;2022-08-16T12:25:57;7.25;7.25;5.25
56495;PMS5003;42804;55.762;38.084;2022-08-16T12:28:33;11.75;11.75;9.00
56495;PMS5003;42804;55.762;38.084;2022-08-16T12:31:20;7.00;6.00;4.00
56495;PMS5003;42804;55.762;38.084;2022-08-16T12:33:49;10.25;9.25;6.50
56495;PMS5003;42804;55.762;38.084;2022-08-16T12:36:23;11.00;11.00;7.00
56495;PMS5003;42804;55.762;38.084;2022-08-16T12:38:55;11.00;11.00;7.40
56495;PMS5003;42804;55.762;38.084;2022-08-16T12:41:24;12.25;12.25;8.75
56495;PMS5003;42804;55.762;38.084;2022-08-16T12:43:54;11.75;11.00;8.25
56495;PMS5003;42804;55.762;38.084;2022-08-16T12:46:26;10.25;10.25;8.00
56495;PMS5003;42804;55.762;38.084;2022-08-16T12:48:57;13.50;13.50;10.00
56495;PMS5003;42804;55.762;38.084;2022-08-16T12:51:25;10.00;9.75;6.00
56495;PMS5003;42804;55.762;38.084;2022-08-16T12:54:14;10.00;10.00;6.50
56495;PMS5003;42804;55.762;38.084;2022-08-16T12:56:43;13.75;12.75;9.00
56495;PMS5003;42804;55.762;38.084;2022-08-16T12:59:14;17.75;15.25;11.00
56495;PMS5003;42804;55.762;38.084;2022-08-16T13:01:46;12.75;12.75;9.75
56495;PMS5003;42804;55.762;38.084;2022-08-16T13:04:16;11.75;11.75;9.00
56495;PMS5003;42804;55.762;38.084;2022-08-16T13:06:50;14.25;14.00;8.25
56495;PMS5003;42804;55.762;38.084;2022-08-16T13:09:18;13.00;12.50;10.00
56495;PMS5003;42804;55.762;38.084;2022-08-16T13:11:55;9.00;9.00;7.75
56495;PMS5003;42804;55.762;38.084;2022-08-16T13:14:35;12.00;12.00;8.75
56495;PMS5003;42804;55.762;38.084;2022-08-16T13:17:05;10.50;10.50;7.75
56495;PMS5003;42804;55.762;38.084;2022-08-16T13:19:33;13.75;13.75;9.50
56495;PMS5003;42804;55.762;38.084;2022-08-16T13:22:21;10.00;10.00;7.50
56495;PMS5003;42804;55.762;38.084;2022-08-16T13:24:50;13.00;13.00;9.75
56495;PMS5003;42804;55.762;38.084;2022-08-16T13:27:19;13.25;13.25;8.75
56495;PMS5003;42804;55.762;38.084;2022-08-16T13:30:10;11.50;11.50;8.00
56495;PMS5003;42804;55.762;38.084;2022-08-16T13:32:59;11.75;11.25;8.50
56495;PMS5003;42804;55.762;38.084;2022-08-16T13:35:38;11.00;10.00;7.00
56495;PMS5003;42804;55.762;38.084;2022-08-16T13:38:10;14.50;14.25;10.50
56495;PMS5003;42804;55.762;38.084;2022-08-16T13:40:53;15.00;14.75;10.25
56495;PMS5003;42804;55.762;38.084;2022-08-16T13:43:23;16.00;15.00;11.00
56495;PMS5003;42804;55.762;38.084;2022-08-16T13:45:56;14.75;14.75;10.50
56495;PMS5003;42804;55.762;38.084;2022-08-16T13:48:29;11.20;11.20;8.20
56495;PMS5003;42804;55.762;38.084;2022-08-16T13:51:10;12.40;12.40;9.00
56495;PMS5003;42804;55.762;38.084;2022-08-16T13:53:43;12.75;12.25;8.00
56495;PMS5003;42804;55.762;38.084;2022-08-16T13:56:24;13.50;13.00;9.25
56495;PMS5003;42804;55.762;38.084;2022-08-16T13:59:03;15.00;13.25;9.75
56495;PMS5003;42804;55.762;38.084;2022-08-16T14:01:47;15.00;14.00;9.00
56495;PMS5003;42804;55.762;38.084;2022-08-16T14:04:22;11.75;11.25;8.00
56495;PMS5003;42804;55.762;38.084;2022-08-16T14:06:53;12.00;12.00;8.75
56495;PMS5003;42804;55.762;38.084;2022-08-16T14:09:21;14.25;14.00;9.50
56495;PMS5003;42804;55.762;38.084;2022-08-16T14:11:52;14.75;14.75;10.75
56495;PMS5003;42804;55.762;38.084;2022-08-16T14:14:23;14.50;14.00;11.00
56495;PMS5003;42804;55.762;38.084;2022-08-16T14:16:57;17.50;16.50;11.50
56495;PMS5003;42804;55.762;38.084;2022-08-16T14:19:27;13.00;11.25;10.00
56495;PMS5003;42804;55.762;38.084;2022-08-16T14:21:57;11.25;10.25;7.50
56495;PMS5003;42804;55.762;38.084;2022-08-16T14:24:46;13.25;12.50;10.00
56495;PMS5003;42804;55.762;38.084;2022-08-16T14:27:15;14.25;14.00;10.00
56495;PMS5003;42804;55.762;38.084;2022-08-16T14:29:45;17.00;16.75;12.50
56495;PMS5003;42804;55.762;38.084;2022-08-16T14:32:16;15.00;14.50;8.75
56495;PMS5003;42804;55.762;38.084;2022-08-16T14:34:59;15.75;15.25;9.75
56495;PMS5003;42804;55.762;38.084;2022-08-16T14:37:29;20.50;19.25;14.25